Rowena, Oregon
Current Conditions -  °F | °C
As of 1:53 PM on Tuesday 25 Nov 2014 (Local Time) from KDLS Reporting Station
Overcast Overcast  
Wind Chill: 61°   Ceiling: 4300
Heat Index: 61°   Visibility: 10mi
Dew Point: 51°   Wind: 16mph
Humidity: 70%   Direction: 330°NNW
Pressure: 30.2"   Gusts: NA
Location:  45.5517°N, 121.219°W
Report Text: KDLS 252153Z AUTO 33014KT 10SM OVC043 16/11 A3020 RMK AO2 SLP228 T01610106
Loading
Personal Weather Stations






























Interactive Weather Map New forecast layout! Learn more

10-Day Weather Forecast

Advertisements
Track Severe Weather on mobile